Time;durP1;ratioP1;P1;durP2;ratioP2;P2;SDS_P1;SDS_P2;PMS_P1;PMS_P2;Temp;Humidity;BMP_temperature;BMP_pressure;BME280_temperature;BME280_humidity;BME280_pressure;Samples;Min_cycle;Max_cycle;Signal;HPM_P1;HPM_P2
2022/12/19 00:01:01;;;;;;;75.13;31.38;;;0.40;99.90;;;;;;5051935;28;20041;-78
2022/12/19 00:03:27;;;;;;;65.30;29.23;;;0.40;99.90;;;;;;5051892;28;20102;-78
2022/12/19 00:05:53;;;;;;;75.93;34.15;;;0.40;99.90;;;;;;5053004;28;20484;-78
2022/12/19 00:08:18;;;;;;;76.30;29.88;;;0.50;99.90;;;;;;5055538;28;20045;-77
2022/12/19 00:10:55;;;;;;;65.60;33.85;;;0.40;99.90;;;;;;5055705;28;20045;-78
2022/12/19 00:13:21;;;;;;;69.90;29.98;;;0.40;99.90;;;;;;5055576;28;20053;-78
2022/12/19 00:15:47;;;;;;;76.47;29.40;;;0.40;99.90;;;;;;5055459;28;20419;-78
2022/12/19 00:18:12;;;;;;;76.13;31.33;;;0.50;99.90;;;;;;5055276;28;20477;-78
2022/12/19 00:20:38;;;;;;;78.13;35.58;;;0.50;99.90;;;;;;5055564;28;20049;-78
2022/12/19 00:23:04;;;;;;;65.47;29.38;;;0.50;99.90;;;;;;5055213;28;20049;-78
2022/12/19 00:25:29;;;;;;;70.57;31.73;;;0.60;99.90;;;;;;5055172;28;20049;-78
2022/12/19 00:27:55;;;;;;;80.22;33.60;;;0.50;99.90;;;;;;5055028;28;20128;-78
2022/12/19 00:30:20;;;;;;;67.10;29.48;;;0.60;99.90;;;;;;5055256;28;20036;-79
2022/12/19 00:32:46;;;;;;;67.63;32.47;;;0.50;99.90;;;;;;5055295;28;20431;-78
2022/12/19 00:35:12;;;;;;;66.97;30.45;;;0.60;99.90;;;;;;5054992;28;20041;-78
2022/12/19 00:37:38;;;;;;;79.65;34.88;;;0.60;99.90;;;;;;5054975;28;20048;-78
2022/12/19 00:40:05;;;;;;;88.15;38.85;;;0.60;99.90;;;;;;5055209;28;20047;-78
2022/12/19 00:42:31;;;;;;;77.13;33.00;;;0.60;99.90;;;;;;5054719;28;20504;-78
2022/12/19 00:44:56;;;;;;;88.05;36.67;;;0.70;99.90;;;;;;5054712;28;20057;-78
2022/12/19 00:47:22;;;;;;;78.43;33.13;;;0.70;99.90;;;;;;5056141;28;20455;-78
2022/12/19 00:49:50;;;;;;;86.15;34.05;;;0.60;99.90;;;;;;5055021;28;20048;-78
2022/12/19 00:52:16;;;;;;;80.82;34.67;;;0.60;99.90;;;;;;5055055;28;20480;-78
2022/12/19 00:54:42;;;;;;;71.88;32.42;;;0.60;99.90;;;;;;5055756;28;20048;-78
2022/12/19 00:57:07;;;;;;;66.22;29.27;;;0.70;99.90;;;;;;5054385;28;20048;-78
2022/12/19 00:59:33;;;;;;;74.80;33.17;;;0.80;99.90;;;;;;5054509;28;20132;-78
2022/12/19 01:01:58;;;;;;;85.03;36.13;;;0.80;99.90;;;;;;5054741;28;20048;-78
2022/12/19 01:04:24;;;;;;;78.95;34.03;;;0.70;99.90;;;;;;5054506;28;20427;-78
2022/12/19 01:06:50;;;;;;;84.35;35.40;;;0.70;99.90;;;;;;5055540;28;20138;-78
2022/12/19 01:09:16;;;;;;;87.03;38.15;;;0.80;99.90;;;;;;5054375;28;20079;-78
2022/12/19 01:14:35;;;;;;;88.15;35.50;;;0.80;99.90;;;;;;5054318;28;20502;-79
2022/12/19 01:17:00;;;;;;;75.18;32.78;;;0.90;99.90;;;;;;5054337;28;20045;-78
2022/12/19 01:19:26;;;;;;;85.82;35.30;;;0.90;99.90;;;;;;5054201;28;20064;-78
2022/12/19 01:21:52;;;;;;;78.03;34.60;;;0.80;99.90;;;;;;5054410;28;20052;-78
2022/12/19 01:24:18;;;;;;;86.63;35.17;;;1.00;99.90;;;;;;5053969;28;20579;-78
2022/12/19 01:26:43;;;;;;;81.93;33.55;;;1.00;99.90;;;;;;5054304;28;20095;-78
2022/12/19 01:29:09;;;;;;;90.35;36.33;;;0.90;99.90;;;;;;5054261;28;20048;-79
2022/12/19 01:31:35;;;;;;;80.43;32.67;;;0.90;99.90;;;;;;5054262;28;20522;-78
2022/12/19 01:34:00;;;;;;;85.05;37.05;;;0.90;99.90;;;;;;5054248;28;20396;-78
2022/12/19 01:36:26;;;;;;;83.85;34.53;;;1.00;99.90;;;;;;5054070;28;20428;-78
2022/12/19 01:38:58;;;;;;;81.90;34.65;;;0.90;99.90;;;;;;5053962;28;20400;-78
2022/12/19 01:41:23;;;;;;;98.40;39.35;;;0.90;99.90;;;;;;5053762;28;20076;-76
2022/12/19 01:43:56;;;;;;;85.57;36.63;;;1.00;99.90;;;;;;5053932;28;20045;-76
2022/12/19 01:46:27;;;;;;;100.95;43.53;;;1.00;99.90;;;;;;5053603;28;20370;-76
2022/12/19 01:48:53;;;;;;;94.45;39.88;;;1.10;99.90;;;;;;5053671;28;20056;-76
2022/12/19 01:51:40;;;;;;;92.45;35.28;;;1.00;99.90;;;;;;5053709;28;20037;-76
2022/12/19 01:54:14;;;;;;;94.55;38.40;;;1.00;99.90;;;;;;5053721;28;20076;-76
2022/12/19 01:56:44;;;;;;;86.65;39.55;;;1.10;99.90;;;;;;5053504;28;20041;-76
2022/12/19 01:59:18;;;;;;;88.65;34.67;;;1.10;99.90;;;;;;5053475;28;20045;-76
2022/12/19 02:01:44;;;;;;;90.47;36.70;;;1.00;99.90;;;;;;5053263;28;20045;-76
2022/12/19 02:04:11;;;;;;;88.82;36.85;;;1.20;99.90;;;;;;5053498;28;20127;-76
2022/12/19 02:06:40;;;;;;;98.43;38.35;;;1.20;99.90;;;;;;5053536;28;20072;-76
2022/12/19 02:09:05;;;;;;;93.15;37.33;;;1.20;99.90;;;;;;5053243;28;20049;-76
2022/12/19 02:11:31;;;;;;;83.65;34.08;;;1.20;99.90;;;;;;5053325;28;20044;-76
2022/12/19 02:13:57;;;;;;;91.45;35.53;;;1.10;99.90;;;;;;5053254;28;20065;-76
2022/12/19 02:16:32;;;;;;;102.18;42.70;;;1.20;99.90;;;;;;5053149;28;20037;-77
2022/12/19 02:19:08;;;;;;;85.85;33.67;;;1.10;99.90;;;;;;5053277;28;20105;-76
2022/12/19 02:21:47;;;;;;;101.20;41.38;;;1.20;99.90;;;;;;5053194;28;20119;-76
2022/12/19 02:24:43;;;;;;;114.35;46.17;;;1.10;99.90;;;;;;5053055;28;20392;-77
2022/12/19 02:27:45;;;;;;;91.95;38.92;;;1.20;99.90;;;;;;5053168;28;20045;-76
2022/12/19 02:30:37;;;;;;;95.57;35.80;;;1.20;99.90;;;;;;5031797;28;20477;-76
2022/12/19 02:33:20;;;;;;;110.20;39.78;;;1.10;99.90;;;;;;5052717;28;20540;-76
2022/12/19 02:35:52;;;;;;;104.13;41.63;;;1.20;99.90;;;;;;5052699;28;20463;-76
2022/12/19 02:38:25;;;;;;;91.03;36.97;;;1.10;99.90;;;;;;5053055;28;20307;-76
2022/12/19 02:40:59;;;;;;;104.15;38.42;;;1.10;99.90;;;;;;5053041;28;20098;-77
2022/12/19 02:43:29;;;;;;;106.10;39.35;;;1.20;99.90;;;;;;5052582;28;20053;-77
2022/12/19 02:45:56;;;;;;;122.10;46.38;;;1.20;99.90;;;;;;5052481;28;20049;-76
2022/12/19 02:48:23;;;;;;;113.65;39.58;;;1.40;99.90;;;;;;5052545;28;20094;-75
2022/12/19 02:50:48;;;;;;;89.90;34.85;;;1.40;99.90;;;;;;5052350;28;20048;-77
2022/12/19 02:53:15;;;;;;;117.53;46.65;;;1.40;99.90;;;;;;5052757;28;20057;-77
2022/12/19 02:56:16;;;;;;;106.30;38.80;;;1.40;99.90;;;;;;5052774;28;20500;-78
2022/12/19 02:59:15;;;;;;;86.35;33.55;;;1.30;99.90;;;;;;5052577;28;20057;-77
2022/12/19 03:02:07;;;;;;;121.03;43.55;;;1.30;99.90;;;;;;5052660;28;20432;-78
2022/12/19 03:04:43;;;;;;;116.03;41.78;;;1.40;99.90;;;;;;5052588;28;20507;-78
2022/12/19 03:07:35;;;;;;;117.03;40.95;;;1.40;99.90;;;;;;5052353;28;20041;-78
2022/12/19 03:10:10;;;;;;;112.47;42.03;;;1.40;99.90;;;;;;5052583;28;20053;-78
2022/12/19 03:12:53;;;;;;;129.32;45.25;;;1.40;99.90;;;;;;5052274;28;20101;-78
2022/12/19 03:15:19;;;;;;;119.15;44.53;;;1.40;99.90;;;;;;5052478;28;20075;-77
2022/12/19 03:17:46;;;;;;;118.78;41.83;;;1.50;99.90;;;;;;5052249;28;20128;-78
2022/12/19 03:20:31;;;;;;;126.65;43.50;;;1.40;99.90;;;;;;5052405;28;20094;-77
2022/12/19 03:22:59;;;;;;;106.75;39.95;;;1.50;99.90;;;;;;5052274;28;20560;-77
2022/12/19 03:25:28;;;;;;;118.38;41.60;;;1.50;99.90;;;;;;5052044;28;20131;-77
2022/12/19 03:27:56;;;;;;;108.88;39.97;;;1.50;99.90;;;;;;5052061;28;20067;-77
2022/12/19 03:30:22;;;;;;;131.48;42.08;;;1.50;99.90;;;;;;5052095;28;20056;-78
2022/12/19 03:32:48;;;;;;;110.97;36.17;;;1.60;99.90;;;;;;5052093;28;20037;-78
2022/12/19 03:35:24;;;;;;;141.65;47.15;;;1.60;99.90;;;;;;5052360;28;20052;-78
2022/12/19 03:37:51;;;;;;;120.97;42.25;;;1.80;99.90;;;;;;5052117;28;20400;-78
2022/12/19 03:40:20;;;;;;;127.47;44.53;;;1.80;99.90;;;;;;5052118;28;20115;-77
2022/12/19 03:45:39;;;;;;;119.25;38.63;;;1.90;99.90;;;;;;5055706;28;20049;-76
2022/12/19 03:48:14;;;;;;;125.40;43.03;;;1.80;99.90;;;;;;5056104;28;20053;-76
2022/12/19 03:50:51;;;;;;;121.25;38.60;;;1.80;99.90;;;;;;5055843;28;20423;-76
2022/12/19 03:53:40;;;;;;;135.80;45.17;;;1.90;99.90;;;;;;5055851;28;20106;-76
2022/12/19 03:56:27;;;;;;;126.05;41.92;;;1.90;99.90;;;;;;5055565;28;20068;-76
2022/12/19 03:59:37;;;;;;;125.63;42.10;;;2.00;99.90;;;;;;5055947;28;20103;-76
2022/12/19 04:02:03;;;;;;;108.25;38.35;;;2.10;99.90;;;;;;4998656;28;20042;-76
2022/12/19 04:04:33;;;;;;;114.55;41.45;;;2.00;99.90;;;;;;5047322;28;20060;-76
2022/12/19 04:07:01;;;;;;;137.82;44.70;;;2.00;99.90;;;;;;5055725;28;20029;-76
2022/12/19 04:09:27;;;;;;;138.13;48.47;;;2.00;99.90;;;;;;5055719;28;20049;-76
2022/12/19 04:11:59;;;;;;;116.50;39.00;;;2.10;99.90;;;;;;5055505;28;20040;-76
2022/12/19 04:14:34;;;;;;;134.55;41.72;;;2.10;99.90;;;;;;5055518;28;20037;-76
2022/12/19 04:17:02;;;;;;;110.75;39.53;;;2.00;99.90;;;;;;5054884;28;20094;-76
2022/12/19 04:19:59;;;;;;;109.95;36.92;;;2.20;99.90;;;;;;5055184;28;20051;-76
2022/12/19 04:22:37;;;;;;;141.80;47.50;;;2.00;99.90;;;;;;5055002;28;20057;-76
2022/12/19 04:25:06;;;;;;;126.00;41.53;;;2.00;99.90;;;;;;5055534;28;20481;-76
2022/12/19 04:27:35;;;;;;;138.43;41.65;;;2.00;99.90;;;;;;5055125;28;20492;-76
2022/12/19 04:30:02;;;;;;;142.23;45.20;;;2.00;99.90;;;;;;5055337;28;20486;-76
2022/12/19 04:32:31;;;;;;;150.40;47.63;;;2.10;99.90;;;;;;5054961;28;20053;-77
2022/12/19 04:34:59;;;;;;;144.95;43.50;;;2.10;99.90;;;;;;5055316;28;20388;-78
2022/12/19 04:37:25;;;;;;;148.93;45.05;;;2.20;99.90;;;;;;5055004;28;20045;-76
2022/12/19 04:39:51;;;;;;;157.10;48.85;;;2.30;99.90;;;;;;5054786;28;20102;-76
2022/12/19 04:42:17;;;;;;;147.55;42.63;;;2.20;99.90;;;;;;5055061;28;20077;-76
2022/12/19 04:44:43;;;;;;;146.45;44.80;;;2.20;99.90;;;;;;5054563;28;20115;-76
2022/12/19 04:47:08;;;;;;;134.43;43.40;;;2.30;99.90;;;;;;5054805;28;20063;-76
2022/12/19 04:49:34;;;;;;;147.40;45.40;;;2.40;99.90;;;;;;5054599;28;20043;-76
2022/12/19 04:51:59;;;;;;;137.50;44.30;;;2.30;99.90;;;;;;5054384;28;20140;-76
2022/12/19 04:54:25;;;;;;;138.00;42.88;;;2.40;99.90;;;;;;5054769;28;20052;-76
2022/12/19 04:56:52;;;;;;;156.30;50.85;;;2.30;99.90;;;;;;5054452;28;20055;-77
2022/12/19 04:59:18;;;;;;;148.30;47.03;;;2.30;99.90;;;;;;5054791;28;20123;-77
2022/12/19 05:01:43;;;;;;;151.73;46.35;;;2.50;99.90;;;;;;5054631;28;20531;-77
2022/12/19 05:04:10;;;;;;;131.73;41.67;;;2.40;99.90;;;;;;5054517;28;20412;-77
2022/12/19 05:06:35;;;;;;;137.38;41.55;;;2.30;99.90;;;;;;5054803;28;20049;-76
2022/12/19 05:09:01;;;;;;;131.45;42.80;;;2.40;99.90;;;;;;5054247;28;20111;-76
2022/12/19 05:11:26;;;;;;;132.52;42.35;;;2.50;99.90;;;;;;5054182;28;20041;-76
2022/12/19 05:13:55;;;;;;;161.13;48.38;;;2.40;99.90;;;;;;5054368;28;20056;-76
2022/12/19 05:16:20;;;;;;;121.55;38.17;;;2.50;99.90;;;;;;5054222;28;20385;-76
2022/12/19 05:18:46;;;;;;;148.45;46.38;;;2.60;99.90;;;;;;5054500;28;20114;-76
2022/12/19 05:21:12;;;;;;;142.85;43.13;;;2.70;99.90;;;;;;5054193;28;20477;-76
2022/12/19 05:23:38;;;;;;;158.18;48.03;;;2.70;99.90;;;;;;5054464;28;20049;-76
2022/12/19 05:26:04;;;;;;;135.48;42.58;;;2.50;99.90;;;;;;5054000;28;20393;-76
2022/12/19 05:28:31;;;;;;;151.73;45.35;;;2.70;99.90;;;;;;5054041;28;20041;-76
2022/12/19 05:31:16;;;;;;;170.18;53.00;;;2.60;99.90;;;;;;5054198;28;20381;-76
2022/12/19 05:33:43;;;;;;;145.98;44.78;;;2.60;99.90;;;;;;5054016;28;20045;-76
2022/12/19 05:36:10;;;;;;;151.32;46.03;;;2.70;99.90;;;;;;5053962;28;20041;-76
2022/12/19 05:38:36;;;;;;;143.63;43.92;;;2.60;99.90;;;;;;5053985;28;20124;-76
2022/12/19 05:41:14;;;;;;;140.38;43.08;;;2.70;99.90;;;;;;5053809;28;20044;-77
2022/12/19 05:43:40;;;;;;;154.43;45.05;;;2.70;99.90;;;;;;5053786;28;20406;-77
2022/12/19 05:46:06;;;;;;;147.50;42.83;;;2.70;99.90;;;;;;5053370;28;20060;-77
2022/12/19 05:48:32;;;;;;;155.02;43.53;;;2.70;99.90;;;;;;5053680;28;20398;-77
2022/12/19 05:50:58;;;;;;;173.98;48.08;;;2.70;99.90;;;;;;5053786;28;20072;-77
2022/12/19 05:53:23;;;;;;;146.82;43.42;;;2.80;99.90;;;;;;5053752;28;20481;-77
2022/12/19 05:55:49;;;;;;;167.75;48.33;;;2.70;99.90;;;;;;5053763;28;20041;-77
2022/12/19 05:58:18;;;;;;;148.88;41.15;;;2.80;99.90;;;;;;5053449;28;20049;-79
2022/12/19 06:00:46;;;;;;;147.52;41.63;;;2.80;99.90;;;;;;5053515;28;20076;-77
2022/12/19 06:03:12;;;;;;;143.82;43.65;;;2.70;99.90;;;;;;5052580;28;20077;-78
2022/12/19 06:05:38;;;;;;;142.50;41.90;;;2.90;99.90;;;;;;5053507;28;20048;-77
2022/12/19 06:08:04;;;;;;;121.38;36.78;;;2.80;99.90;;;;;;5053272;28;20099;-77
2022/12/19 06:10:30;;;;;;;121.15;34.88;;;2.90;99.90;;;;;;5053509;28;20059;-77
2022/12/19 06:12:55;;;;;;;151.35;42.50;;;2.90;99.90;;;;;;5053293;28;20115;-78
2022/12/19 06:15:21;;;;;;;154.90;45.42;;;3.00;99.90;;;;;;5053091;28;20052;-78
2022/12/19 06:17:46;;;;;;;155.10;43.35;;;3.10;99.90;;;;;;5052938;28;20114;-78
2022/12/19 06:20:12;;;;;;;169.02;47.22;;;2.90;99.90;;;;;;5052973;28;20045;-78
2022/12/19 06:22:37;;;;;;;143.75;39.63;;;3.00;99.90;;;;;;5052955;28;20060;-78
2022/12/19 06:25:03;;;;;;;134.52;36.80;;;3.10;99.90;;;;;;5053221;28;20040;-78
2022/12/19 06:27:29;;;;;;;131.38;36.25;;;3.00;99.90;;;;;;5053232;28;20056;-78
2022/12/19 06:29:55;;;;;;;130.13;38.33;;;3.10;99.90;;;;;;5052900;28;20045;-78
2022/12/19 06:32:20;;;;;;;122.22;33.05;;;3.20;99.90;;;;;;5052982;28;20052;-78
2022/12/19 06:34:46;;;;;;;120.82;36.22;;;3.20;99.90;;;;;;5052931;28;20391;-78
2022/12/19 06:37:12;;;;;;;134.00;38.67;;;3.20;99.90;;;;;;5052595;28;20045;-77
2022/12/19 06:39:37;;;;;;;126.53;35.40;;;3.30;99.90;;;;;;5052612;28;20049;-78
2022/12/19 06:44:47;;;;;;;138.25;38.33;;;3.30;99.90;;;;;;5052744;28;20057;-78
2022/12/19 06:47:13;;;;;;;123.43;35.78;;;3.30;99.90;;;;;;5052524;28;20053;-78
2022/12/19 06:49:39;;;;;;;134.32;35.22;;;3.30;99.90;;;;;;5052495;28;20043;-78
2022/12/19 06:52:04;;;;;;;134.52;37.83;;;3.30;99.90;;;;;;5052527;28;20051;-77
2022/12/19 06:54:30;;;;;;;134.80;34.97;;;3.30;99.90;;;;;;5052583;28;20068;-77
2022/12/19 06:56:56;;;;;;;134.10;39.38;;;3.40;99.90;;;;;;5052439;28;20076;-78
2022/12/19 06:59:21;;;;;;;120.93;33.47;;;3.40;99.90;;;;;;5052706;28;20084;-78
2022/12/19 07:02:14;;;;;;;123.32;34.85;;;3.40;99.90;;;;;;5052312;28;20135;-78
2022/12/19 07:04:48;;;;;;;121.38;36.92;;;3.50;99.90;;;;;;5052689;28;20049;-77
2022/12/19 07:07:14;;;;;;;128.73;34.40;;;3.50;99.90;;;;;;5052652;28;20126;-78
2022/12/19 07:09:40;;;;;;;109.50;29.23;;;3.70;99.90;;;;;;5052353;28;20434;-78
2022/12/19 07:12:06;;;;;;;125.50;35.38;;;3.80;99.90;;;;;;5052178;28;20045;-78
2022/12/19 07:14:31;;;;;;;110.00;31.83;;;3.70;99.90;;;;;;5052347;28;20051;-78
2022/12/19 07:17:02;;;;;;;130.05;36.00;;;3.70;99.90;;;;;;5052360;28;20396;-78
2022/12/19 07:19:30;;;;;;;117.80;30.52;;;3.80;99.90;;;;;;5052268;28;20045;-78
2022/12/19 07:21:57;;;;;;;131.52;33.17;;;3.80;99.90;;;;;;5052264;28;20083;-78
2022/12/19 07:24:23;;;;;;;100.95;30.65;;;3.90;99.90;;;;;;5052171;28;20045;-78
2022/12/19 07:26:50;;;;;;;100.07;28.15;;;4.00;99.90;;;;;;5052317;28;20052;-78
2022/12/19 07:29:15;;;;;;;92.97;28.00;;;4.10;99.90;;;;;;5052323;28;20106;-78
2022/12/19 07:31:41;;;;;;;101.13;28.80;;;4.10;99.90;;;;;;5052746;28;20373;-78
2022/12/19 07:34:06;;;;;;;96.90;26.98;;;4.20;99.90;;;;;;5052059;28;20072;-78
2022/12/19 07:36:32;;;;;;;99.97;27.10;;;4.20;99.90;;;;;;5051983;28;20094;-78
2022/12/19 07:38:58;;;;;;;98.82;30.40;;;4.20;99.90;;;;;;5052034;28;20087;-78
2022/12/19 07:41:23;;;;;;;98.13;29.02;;;4.30;99.90;;;;;;5052110;28;20049;-78
2022/12/19 07:43:49;;;;;;;89.97;26.00;;;4.30;99.90;;;;;;5051964;28;20392;-78
2022/12/19 07:46:15;;;;;;;86.35;27.27;;;4.40;99.90;;;;;;5051803;28;20086;-78
2022/12/19 07:48:40;;;;;;;83.30;22.90;;;4.30;99.90;;;;;;5051985;28;20501;-78
2022/12/19 07:51:06;;;;;;;91.53;26.38;;;4.40;99.90;;;;;;5052248;28;20080;-78
2022/12/19 07:53:32;;;;;;;81.20;24.67;;;4.40;99.90;;;;;;5052141;28;20599;-78
2022/12/19 07:55:57;;;;;;;93.18;27.52;;;4.40;99.90;;;;;;5051843;28;20045;-78
2022/12/19 07:58:23;;;;;;;88.75;27.17;;;4.40;99.90;;;;;;5051741;28;20128;-78
2022/12/19 08:00:56;;;;;;;100.47;25.75;;;4.50;99.90;;;;;;5051778;28;20051;-78
2022/12/19 08:03:23;;;;;;;86.50;26.80;;;4.50;99.90;;;;;;5051745;28;20101;-79
2022/12/19 08:05:48;;;;;;;93.93;25.35;;;4.60;99.90;;;;;;5050675;28;20059;-79
2022/12/19 08:08:14;;;;;;;78.53;24.77;;;4.60;99.90;;;;;;5051688;28;20131;-79
2022/12/19 08:10:40;;;;;;;81.20;24.90;;;4.60;99.90;;;;;;5051515;28;20087;-79
2022/12/19 08:13:06;;;;;;;78.10;25.13;;;4.70;99.90;;;;;;5051644;28;20053;-79
2022/12/19 08:15:32;;;;;;;83.97;25.88;;;4.70;99.90;;;;;;5051579;28;20045;-79
2022/12/19 08:17:57;;;;;;;75.18;24.00;;;4.80;99.90;;;;;;5051358;28;20111;-80
2022/12/19 08:20:23;;;;;;;89.38;26.63;;;4.80;99.90;;;;;;5051448;28;20098;-79
2022/12/19 08:22:49;;;;;;;73.97;23.15;;;4.80;99.90;;;;;;5052944;28;20469;-79
2022/12/19 08:25:14;;;;;;;82.03;24.55;;;4.90;99.90;;;;;;5051431;28;20044;-79
2022/12/19 08:27:41;;;;;;;82.85;25.63;;;4.90;99.90;;;;;;5053835;28;20110;-79
2022/12/19 08:30:07;;;;;;;85.78;25.10;;;4.90;99.90;;;;;;5055199;28;20444;-79
2022/12/19 08:32:33;;;;;;;73.03;21.83;;;5.00;99.90;;;;;;5055137;28;20051;-79
2022/12/19 08:34:59;;;;;;;85.63;24.67;;;5.00;99.90;;;;;;5055123;28;20033;-79
2022/12/19 08:37:24;;;;;;;76.53;24.52;;;5.10;99.90;;;;;;5054787;28;20049;-78
2022/12/19 08:39:50;;;;;;;75.90;24.15;;;5.10;99.90;;;;;;5055100;28;20041;-77
2022/12/19 08:42:16;;;;;;;73.97;21.63;;;5.20;99.90;;;;;;5055031;28;20449;-78
2022/12/19 08:44:41;;;;;;;73.57;22.88;;;5.20;99.90;;;;;;5047635;28;20466;-77
2022/12/19 08:47:08;;;;;;;76.82;24.73;;;5.20;99.90;;;;;;5042974;28;20085;-78
2022/12/19 08:49:34;;;;;;;72.22;22.25;;;5.20;99.90;;;;;;5034695;28;20064;-78
2022/12/19 08:51:59;;;;;;;75.70;24.73;;;5.30;99.90;;;;;;5034508;28;20409;-78
2022/12/19 08:54:25;;;;;;;70.75;22.70;;;5.30;99.90;;;;;;5034434;28;20073;-78
2022/12/19 08:56:51;;;;;;;77.00;23.80;;;5.30;99.90;;;;;;5034261;28;20095;-78
2022/12/19 08:59:17;;;;;;;75.97;23.10;;;5.40;99.90;;;;;;5034384;28;20049;-78
2022/12/19 09:01:43;;;;;;;71.57;22.30;;;5.40;99.90;;;;;;5035777;28;20040;-78
2022/12/19 09:04:08;;;;;;;77.15;24.70;;;5.40;99.90;;;;;;5034249;28;20052;-77
2022/12/19 09:06:34;;;;;;;80.97;25.80;;;5.50;99.90;;;;;;5034172;28;20050;-79
2022/12/19 09:09:00;;;;;;;68.90;22.67;;;5.70;99.90;;;;;;5034143;28;20116;-79
2022/12/19 09:11:25;;;;;;;76.55;24.80;;;5.60;99.90;;;;;;5034401;28;20057;-78
2022/12/19 09:13:55;;;;;;;80.40;26.58;;;5.70;99.90;;;;;;5034317;28;20042;-78
2022/12/19 09:16:22;;;;;;;76.40;25.08;;;5.60;99.90;;;;;;5033936;28;20078;-78
2022/12/19 09:18:50;;;;;;;81.28;29.50;;;5.70;99.90;;;;;;5033980;28;20056;-79
2022/12/19 09:21:21;;;;;;;70.90;25.38;;;5.70;99.90;;;;;;5033868;28;20042;-78
2022/12/19 09:23:52;;;;;;;94.43;29.85;;;5.70;99.90;;;;;;5034007;28;20053;-78
2022/12/19 09:26:18;;;;;;;91.57;30.80;;;5.80;99.90;;;;;;5033925;28;20084;-78
2022/12/19 09:28:46;;;;;;;97.65;30.88;;;5.80;99.90;;;;;;5034087;28;20126;-78
2022/12/19 09:31:17;;;;;;;87.32;28.25;;;5.90;99.90;;;;;;5033711;28;20045;-77
2022/12/19 09:33:43;;;;;;;85.95;29.30;;;5.90;99.90;;;;;;5033984;28;20114;-79
2022/12/19 09:36:15;;;;;;;85.70;29.00;;;5.90;99.90;;;;;;5033535;28;20501;-79
2022/12/19 09:38:41;;;;;;;86.95;30.55;;;5.80;99.90;;;;;;5032373;28;20049;-78
2022/12/19 09:41:22;;;;;;;91.10;28.52;;;6.00;99.90;;;;;;5033851;28;20049;-78
2022/12/19 09:44:04;;;;;;;92.85;30.80;;;6.00;99.90;;;;;;5033467;28;20045;-79
2022/12/19 09:46:46;;;;;;;88.97;30.70;;;6.10;99.90;;;;;;5045592;28;20099;-79
2022/12/19 09:49:46;;;;;;;90.97;29.77;;;6.00;99.90;;;;;;5053272;28;20052;-79
2022/12/19 09:52:40;;;;;;;67.00;24.98;;;6.10;99.90;;;;;;5041905;28;20056;-79
2022/12/19 09:55:25;;;;;;;97.20;31.63;;;6.20;99.90;;;;;;5052381;28;20056;-79
2022/12/19 09:58:17;;;;;;;98.72;33.72;;;6.10;99.90;;;;;;5053090;28;20079;-79
2022/12/19 10:00:49;;;;;;;87.22;32.03;;;6.20;99.90;;;;;;5053209;28;20460;-80
2022/12/19 10:03:43;;;;;;;93.07;32.05;;;6.30;99.90;;;;;;5053034;28;20080;-80
2022/12/19 10:06:23;;;;;;;96.60;36.80;;;6.40;99.90;;;;;;5052804;28;20443;-80
2022/12/19 10:08:51;;;;;;;92.97;34.25;;;6.30;99.90;;;;;;5052828;28;20053;-79
2022/12/19 10:11:16;;;;;;;94.10;32.25;;;6.30;99.90;;;;;;5052923;28;20033;-80
2022/12/19 10:13:48;;;;;;;82.32;31.95;;;6.50;99.90;;;;;;5052747;28;20048;-80
2022/12/19 10:16:36;;;;;;;87.82;35.00;;;6.40;99.90;;;;;;5052791;28;20033;-80
2022/12/19 10:19:07;;;;;;;84.07;31.15;;;6.40;99.90;;;;;;5052678;28;20551;-80
2022/12/19 10:21:59;;;;;;;87.35;32.03;;;6.50;99.90;;;;;;5052660;28;20045;-80
2022/12/19 10:24:55;;;;;;;91.45;32.00;;;6.50;99.90;;;;;;5052841;28;20052;-80
2022/12/19 10:27:33;;;;;;;89.90;31.50;;;6.40;99.90;;;;;;5052518;28;20374;-81
2022/12/19 10:30:16;;;;;;;85.68;33.55;;;6.60;99.90;;;;;;5052534;28;20053;-80
2022/12/19 10:33:15;;;;;;;81.22;32.95;;;6.70;99.90;;;;;;5038452;28;20516;-80
2022/12/19 10:35:43;;;;;;;75.47;28.42;;;6.70;99.90;;;;;;5033797;28;20076;-80
2022/12/19 10:38:32;;;;;;;89.47;36.72;;;6.70;99.90;;;;;;5033570;28;20103;-82
2022/12/19 10:41:10;;;;;;;77.25;31.83;;;6.70;99.90;;;;;;5033934;28;20043;-81
2022/12/19 10:43:47;;;;;;;84.28;32.33;;;6.70;99.90;;;;;;5032361;28;20103;-80
2022/12/19 10:46:22;;;;;;;79.20;30.33;;;6.70;99.90;;;;;;5033011;28;20053;-80
2022/12/19 10:48:50;;;;;;;73.72;28.40;;;6.80;99.90;;;;;;5050364;28;20131;-80
2022/12/19 10:51:23;;;;;;;77.35;33.03;;;6.80;99.90;;;;;;5051878;28;20044;-81
2022/12/19 10:53:55;;;;;;;75.43;28.38;;;6.80;99.90;;;;;;5052216;28;20053;-79
2022/12/19 10:56:24;;;;;;;74.22;30.00;;;6.80;99.90;;;;;;5052045;28;20592;-81
2022/12/19 10:58:56;;;;;;;70.57;28.60;;;6.80;99.90;;;;;;5052210;28;20076;-81
2022/12/19 11:01:24;;;;;;;75.93;30.25;;;6.80;99.90;;;;;;5052091;28;20041;-81
2022/12/19 11:04:12;;;;;;;79.13;30.83;;;6.80;99.90;;;;;;5052002;28;20098;-80
2022/12/19 11:06:46;;;;;;;72.15;27.38;;;6.90;99.90;;;;;;5049263;28;20048;-81
2022/12/19 11:09:18;;;;;;;74.50;28.38;;;6.90;99.90;;;;;;5039833;28;20048;-81
2022/12/19 11:11:54;;;;;;;76.38;31.92;;;7.00;99.90;;;;;;5038587;28;20037;-81
2022/12/19 11:14:23;;;;;;;66.47;27.25;;;6.90;99.90;;;;;;5039827;28;20049;-81
2022/12/19 11:16:52;;;;;;;70.18;29.20;;;6.90;99.90;;;;;;5040563;28;20049;-81
2022/12/19 11:19:35;;;;;;;72.65;29.88;;;7.00;99.90;;;;;;5041987;28;20048;-81
2022/12/19 11:22:12;;;;;;;66.28;27.50;;;7.00;99.90;;;;;;5051868;28;20178;-81
2022/12/19 11:24:47;;;;;;;62.42;27.55;;;7.10;99.90;;;;;;5052157;28;20045;-81
2022/12/19 11:27:39;;;;;;;67.38;27.17;;;7.00;99.90;;;;;;5051777;28;20049;-81
2022/12/19 11:30:19;;;;;;;70.03;30.48;;;7.10;99.90;;;;;;5051384;28;20075;-81
2022/12/19 11:32:48;;;;;;;61.65;26.63;;;7.10;99.90;;;;;;5051231;28;20045;-81
2022/12/19 11:35:23;;;;;;;58.78;25.00;;;7.20;99.90;;;;;;5052870;28;20056;-82
2022/12/19 11:37:57;;;;;;;53.03;23.85;;;7.20;99.90;;;;;;5051623;28;20059;-81
2022/12/19 11:40:37;;;;;;;54.83;26.45;;;7.30;99.90;;;;;;5051821;28;20110;-81
2022/12/19 11:43:26;;;;;;;60.67;25.25;;;7.20;99.90;;;;;;5052024;28;20057;-81
2022/12/19 11:46:07;;;;;;;57.72;27.92;;;7.40;99.90;;;;;;5051396;28;20064;-82
2022/12/19 11:48:47;;;;;;;59.00;26.20;;;7.40;99.90;;;;;;5051574;28;20488;-82
2022/12/19 11:51:19;;;;;;;56.78;24.63;;;7.40;99.90;;;;;;5051502;28;20390;-81
2022/12/19 11:54:18;;;;;;;49.20;23.05;;;7.30;99.90;;;;;;5051912;28;20053;-82
2022/12/19 11:56:44;;;;;;;46.90;22.33;;;7.20;99.90;;;;;;5033937;28;20139;-81
2022/12/19 11:59:39;;;;;;;54.53;25.80;;;7.40;99.90;;;;;;5051708;28;20048;-81
2022/12/19 12:02:27;;;;;;;49.47;21.15;;;7.40;99.90;;;;;;5048609;28;20126;-82
2022/12/19 12:05:26;;;;;;;47.95;22.38;;;7.50;99.90;;;;;;5055607;28;20049;-81
2022/12/19 12:08:11;;;;;;;47.40;21.73;;;7.40;99.90;;;;;;5055263;28;20461;-82
2022/12/19 12:10:42;;;;;;;46.03;22.85;;;7.40;99.90;;;;;;5045608;28;20072;-80
2022/12/19 12:13:31;;;;;;;44.63;19.45;;;7.40;99.90;;;;;;5055490;28;20049;-81
2022/12/19 12:16:12;;;;;;;48.13;23.02;;;7.50;99.90;;;;;;5055114;28;20056;-81
2022/12/19 12:19:15;;;;;;;49.67;22.63;;;7.50;99.90;;;;;;5055162;28;20052;-81
2022/12/19 12:21:56;;;;;;;42.67;21.85;;;7.40;99.90;;;;;;5055004;28;20049;-77
2022/12/19 12:24:46;;;;;;;45.53;21.95;;;7.50;99.90;;;;;;5054927;28;20424;-77
2022/12/19 12:27:26;;;;;;;45.85;22.92;;;7.50;99.90;;;;;;5056263;28;20045;-82
2022/12/19 12:30:15;;;;;;;54.53;25.23;;;7.50;99.90;;;;;;5054852;28;20045;-81
2022/12/19 12:33:10;;;;;;;60.17;30.23;;;7.60;99.90;;;;;;5054725;28;20128;-79
2022/12/19 12:35:38;;;;;;;62.72;35.00;;;7.60;99.90;;;;;;5054714;28;20059;-82
2022/12/19 12:38:21;;;;;;;49.70;25.75;;;7.70;99.90;;;;;;5054622;28;20055;-82
2022/12/19 12:41:10;;;;;;;41.78;24.55;;;7.70;99.90;;;;;;5054665;28;20049;-81
2022/12/19 12:43:51;;;;;;;45.33;22.17;;;7.70;99.90;;;;;;5055809;28;20496;-81
2022/12/19 12:46:26;;;;;;;47.95;26.35;;;7.80;99.90;;;;;;5055683;28;20139;-81
2022/12/19 12:49:02;;;;;;;48.65;28.88;;;7.60;99.90;;;;;;5055815;28;20049;-81
2022/12/19 12:51:31;;;;;;;42.90;22.55;;;7.70;99.90;;;;;;5054727;28;20400;-81
2022/12/19 12:54:08;;;;;;;41.88;23.58;;;7.70;99.90;;;;;;5054416;28;20400;-81
2022/12/19 12:56:35;;;;;;;48.42;24.55;;;7.60;99.90;;;;;;5054346;28;20041;-79
2022/12/19 12:59:03;;;;;;;39.78;21.10;;;7.80;99.90;;;;;;5055516;28;20098;-81
2022/12/19 13:01:28;;;;;;;41.38;20.40;;;7.70;99.90;;;;;;5054552;28;20071;-81
2022/12/19 13:04:05;;;;;;;44.65;22.88;;;7.80;99.90;;;;;;5054363;28;20392;-79